sensor_id;sensor_type;location;lat;lon;timestamp;pressure;altitude;pressure_sealevel;temperature;humidity
25610;BME280;13479;49.044;8.716;2022-08-02T04:16:49;99324.56;;;18.68;71.52
25610;BME280;13479;49.044;8.716;2022-08-02T04:19:20;99334.38;;;18.84;70.56
25610;BME280;13479;49.044;8.716;2022-08-02T04:21:51;99320.84;;;18.92;69.52
25610;BME280;13479;49.044;8.716;2022-08-02T04:24:21;99311.56;;;19.03;68.81
25610;BME280;13479;49.044;8.716;2022-08-02T04:26:47;99293.75;;;19.02;68.41
25610;BME280;13479;49.044;8.716;2022-08-02T04:29:12;99276.16;;;18.91;68.83
25610;BME280;13479;49.044;8.716;2022-08-02T04:31:40;99268.53;;;18.80;70.03
25610;BME280;13479;49.044;8.716;2022-08-02T04:34:06;99277.75;;;18.77;70.40
25610;BME280;13479;49.044;8.716;2022-08-02T04:36:32;99287.09;;;18.90;70.04
25610;BME280;13479;49.044;8.716;2022-08-02T04:38:58;99310.84;;;19.09;69.21
25610;BME280;13479;49.044;8.716;2022-08-02T04:41:38;99307.34;;;19.24;68.76
25610;BME280;13479;49.044;8.716;2022-08-02T04:44:04;99300.88;;;19.33;68.52
25610;BME280;13479;49.044;8.716;2022-08-02T04:46:29;99296.72;;;19.45;68.21
25610;BME280;13479;49.044;8.716;2022-08-02T04:48:55;99291.53;;;19.59;67.30
25610;BME280;13479;49.044;8.716;2022-08-02T04:51:20;99294.06;;;19.75;67.14
25610;BME280;13479;49.044;8.716;2022-08-02T04:53:45;99284.16;;;19.91;66.70
25610;BME280;13479;49.044;8.716;2022-08-02T04:56:10;99282.53;;;20.12;66.18
25610;BME280;13479;49.044;8.716;2022-08-02T04:58:36;99290.06;;;20.31;66.08
25610;BME280;13479;49.044;8.716;2022-08-02T05:01:01;99282.63;;;20.55;65.23
25610;BME280;13479;49.044;8.716;2022-08-02T05:03:26;99278.94;;;20.78;64.14
25610;BME280;13479;49.044;8.716;2022-08-02T05:05:52;99273.09;;;20.96;63.71
25610;BME280;13479;49.044;8.716;2022-08-02T05:08:17;99268.75;;;21.23;62.58
25610;BME280;13479;49.044;8.716;2022-08-02T05:10:42;99253.13;;;21.47;61.41
25610;BME280;13479;49.044;8.716;2022-08-02T05:13:07;99245.28;;;21.52;61.20
25610;BME280;13479;49.044;8.716;2022-08-02T05:15:33;99250.81;;;21.66;61.03
25610;BME280;13479;49.044;8.716;2022-08-02T05:17:58;99244.66;;;21.85;60.09
25610;BME280;13479;49.044;8.716;2022-08-02T05:20:23;99241.59;;;22.02;59.56
25610;BME280;13479;49.044;8.716;2022-08-02T05:22:49;99237.25;;;22.01;59.24
25610;BME280;13479;49.044;8.716;2022-08-02T05:25:14;99235.13;;;21.96;58.96
25610;BME280;13479;49.044;8.716;2022-08-02T05:27:40;99229.28;;;21.93;58.94
25610;BME280;13479;49.044;8.716;2022-08-02T05:30:06;99220.22;;;22.07;58.60
25610;BME280;13479;49.044;8.716;2022-08-02T05:32:31;99230.78;;;22.64;57.53
25610;BME280;13479;49.044;8.716;2022-08-02T05:34:59;99229.50;;;23.54;55.48
25610;BME280;13479;49.044;8.716;2022-08-02T05:37:24;99230.28;;;24.65;53.06
25610;BME280;13479;49.044;8.716;2022-08-02T05:39:49;99228.91;;;25.95;48.75
25610;BME280;13479;49.044;8.716;2022-08-02T05:42:15;99249.19;;;27.26;46.43
25610;BME280;13479;49.044;8.716;2022-08-02T05:44:40;99271.88;;;28.44;43.55
25610;BME280;13479;49.044;8.716;2022-08-02T05:47:05;99278.97;;;29.03;41.96
25610;BME280;13479;49.044;8.716;2022-08-02T05:49:30;99297.69;;;29.45;40.65
25610;BME280;13479;49.044;8.716;2022-08-02T05:52:06;99316.47;;;30.15;38.79
25610;BME280;13479;49.044;8.716;2022-08-02T05:54:47;99323.97;;;31.24;37.51
25610;BME280;13479;49.044;8.716;2022-08-02T05:57:36;99341.38;;;32.36;36.29
25610;BME280;13479;49.044;8.716;2022-08-02T06:05:26;99365.53;;;33.54;32.84
25610;BME280;13479;49.044;8.716;2022-08-02T06:07:54;99383.38;;;33.93;32.37
25610;BME280;13479;49.044;8.716;2022-08-02T06:10:20;99387.25;;;34.68;31.15
25610;BME280;13479;49.044;8.716;2022-08-02T06:13:10;99390.25;;;35.22;30.47
25610;BME280;13479;49.044;8.716;2022-08-02T06:15:37;99390.34;;;36.05;29.12
25610;BME280;13479;49.044;8.716;2022-08-02T06:18:05;99383.50;;;36.51;28.29
25610;BME280;13479;49.044;8.716;2022-08-02T06:20:31;99394.44;;;37.00;27.42
25610;BME280;13479;49.044;8.716;2022-08-02T06:23:01;99401.41;;;37.82;26.38
25610;BME280;13479;49.044;8.716;2022-08-02T06:25:28;99411.00;;;38.60;25.83
25610;BME280;13479;49.044;8.716;2022-08-02T06:27:54;99420.81;;;39.31;24.55
25610;BME280;13479;49.044;8.716;2022-08-02T06:30:20;99425.44;;;40.21;23.58
25610;BME280;13479;49.044;8.716;2022-08-02T06:32:49;99429.03;;;40.80;23.04
25610;BME280;13479;49.044;8.716;2022-08-02T06:35:15;99425.78;;;41.57;22.14
25610;BME280;13479;49.044;8.716;2022-08-02T06:37:50;99423.31;;;42.20;21.16
25610;BME280;13479;49.044;8.716;2022-08-02T06:45:27;99435.47;;;44.19;19.75
25610;BME280;13479;49.044;8.716;2022-08-02T06:47:52;99427.63;;;44.74;18.70
25610;BME280;13479;49.044;8.716;2022-08-02T06:50:18;99430.16;;;44.92;18.31
25610;BME280;13479;49.044;8.716;2022-08-02T06:52:43;99430.38;;;45.27;18.34
25610;BME280;13479;49.044;8.716;2022-08-02T06:55:09;99416.88;;;45.45;17.91
25610;BME280;13479;49.044;8.716;2022-08-02T06:57:34;99424.72;;;45.84;17.62
25610;BME280;13479;49.044;8.716;2022-08-02T07:00:00;99423.97;;;46.51;17.35
25610;BME280;13479;49.044;8.716;2022-08-02T07:02:28;99422.69;;;47.20;16.37
25610;BME280;13479;49.044;8.716;2022-08-02T07:04:54;99415.06;;;47.63;16.40
25610;BME280;13479;49.044;8.716;2022-08-02T07:07:19;99427.84;;;47.57;16.07
25610;BME280;13479;49.044;8.716;2022-08-02T07:09:45;99420.69;;;47.87;15.94
25610;BME280;13479;49.044;8.716;2022-08-02T07:12:10;99410.38;;;47.28;16.25
25610;BME280;13479;49.044;8.716;2022-08-02T07:14:35;99403.94;;;46.01;16.93
25610;BME280;13479;49.044;8.716;2022-08-02T07:17:01;99405.88;;;44.96;17.55
25610;BME280;13479;49.044;8.716;2022-08-02T07:19:26;99402.59;;;44.40;18.08
25610;BME280;13479;49.044;8.716;2022-08-02T07:21:51;99400.25;;;44.18;18.33
25610;BME280;13479;49.044;8.716;2022-08-02T07:24:17;99394.09;;;44.49;17.86
25610;BME280;13479;49.044;8.716;2022-08-02T07:26:42;99400.81;;;45.42;17.26
25610;BME280;13479;49.044;8.716;2022-08-02T07:29:07;99403.38;;;45.79;16.95
25610;BME280;13479;49.044;8.716;2022-08-02T07:31:32;99410.38;;;45.41;17.13
25610;BME280;13479;49.044;8.716;2022-08-02T07:33:58;99417.47;;;45.10;17.60
25610;BME280;13479;49.044;8.716;2022-08-02T07:36:23;99410.09;;;45.18;17.46
25610;BME280;13479;49.044;8.716;2022-08-02T07:38:49;99416.81;;;45.58;17.37
25610;BME280;13479;49.044;8.716;2022-08-02T07:41:14;99411.50;;;46.49;16.32
25610;BME280;13479;49.044;8.716;2022-08-02T07:43:40;99422.88;;;46.92;16.07
25610;BME280;13479;49.044;8.716;2022-08-02T07:46:05;99423.19;;;47.26;15.84
25610;BME280;13479;49.044;8.716;2022-08-02T07:48:30;99431.56;;;47.88;14.97
25610;BME280;13479;49.044;8.716;2022-08-02T07:50:56;99428.94;;;48.22;15.20
25610;BME280;13479;49.044;8.716;2022-08-02T07:53:21;99429.38;;;48.78;14.61
25610;BME280;13479;49.044;8.716;2022-08-02T07:55:46;99430.31;;;48.90;14.65
25610;BME280;13479;49.044;8.716;2022-08-02T07:58:12;99434.81;;;48.94;14.50
25610;BME280;13479;49.044;8.716;2022-08-02T08:00:37;99431.81;;;49.44;13.58
25610;BME280;13479;49.044;8.716;2022-08-02T08:03:02;99429.19;;;49.66;13.67
25610;BME280;13479;49.044;8.716;2022-08-02T08:05:27;99425.69;;;49.76;13.46
25610;BME280;13479;49.044;8.716;2022-08-02T08:07:53;99422.59;;;49.92;13.52
25610;BME280;13479;49.044;8.716;2022-08-02T08:10:18;99427.91;;;50.01;13.13
25610;BME280;13479;49.044;8.716;2022-08-02T08:12:43;99425.41;;;49.92;13.04
25610;BME280;13479;49.044;8.716;2022-08-02T08:15:09;99423.56;;;49.70;13.11
25610;BME280;13479;49.044;8.716;2022-08-02T08:17:35;99422.78;;;50.18;13.04
25610;BME280;13479;49.044;8.716;2022-08-02T08:20:02;99421.72;;;50.37;13.04
25610;BME280;13479;49.044;8.716;2022-08-02T08:22:28;99423.44;;;50.00;12.80
25610;BME280;13479;49.044;8.716;2022-08-02T08:24:53;99423.41;;;49.93;13.21
25610;BME280;13479;49.044;8.716;2022-08-02T08:27:19;99411.88;;;50.13;13.27
25610;BME280;13479;49.044;8.716;2022-08-02T08:29:46;99411.94;;;50.20;12.72
25610;BME280;13479;49.044;8.716;2022-08-02T08:32:12;99405.94;;;50.29;12.97
25610;BME280;13479;49.044;8.716;2022-08-02T08:34:37;99394.00;;;49.98;13.24
25610;BME280;13479;49.044;8.716;2022-08-02T08:37:03;99397.94;;;49.86;13.16
25610;BME280;13479;49.044;8.716;2022-08-02T08:39:28;99404.78;;;49.85;13.29
25610;BME280;13479;49.044;8.716;2022-08-02T08:41:53;99412.13;;;49.93;13.31
25610;BME280;13479;49.044;8.716;2022-08-02T08:44:19;99404.47;;;49.97;13.04
25610;BME280;13479;49.044;8.716;2022-08-02T08:46:48;99404.00;;;49.88;12.99
25610;BME280;13479;49.044;8.716;2022-08-02T08:49:34;99398.03;;;49.55;13.32
25610;BME280;13479;49.044;8.716;2022-08-02T08:52:05;99391.16;;;49.11;13.31
25610;BME280;13479;49.044;8.716;2022-08-02T08:54:32;99391.22;;;47.14;14.97
25610;BME280;13479;49.044;8.716;2022-08-02T08:56:59;99379.59;;;46.05;15.44
25610;BME280;13479;49.044;8.716;2022-08-02T08:59:28;99366.13;;;45.63;15.81
25610;BME280;13479;49.044;8.716;2022-08-02T09:01:54;99357.72;;;44.24;16.92
25610;BME280;13479;49.044;8.716;2022-08-02T09:04:21;99356.72;;;42.91;18.13
25610;BME280;13479;49.044;8.716;2022-08-02T09:06:46;99345.69;;;43.62;17.58
25610;BME280;13479;49.044;8.716;2022-08-02T09:09:11;99343.69;;;44.37;17.44
25610;BME280;13479;49.044;8.716;2022-08-02T09:11:37;99341.41;;;45.85;16.32
25610;BME280;13479;49.044;8.716;2022-08-02T09:14:03;99357.16;;;46.96;15.29
25610;BME280;13479;49.044;8.716;2022-08-02T09:16:34;99367.38;;;47.71;14.49
25610;BME280;13479;49.044;8.716;2022-08-02T09:19:15;99362.03;;;46.80;15.09
25610;BME280;13479;49.044;8.716;2022-08-02T09:21:41;99355.34;;;47.27;14.67
25610;BME280;13479;49.044;8.716;2022-08-02T09:24:19;99360.50;;;47.91;14.47
25610;BME280;13479;49.044;8.716;2022-08-02T09:26:46;99373.72;;;48.68;13.91
25610;BME280;13479;49.044;8.716;2022-08-02T09:29:12;99374.22;;;48.77;13.92
25610;BME280;13479;49.044;8.716;2022-08-02T09:31:38;99379.44;;;49.09;13.83
25610;BME280;13479;49.044;8.716;2022-08-02T09:34:04;99385.03;;;49.85;13.60
25610;BME280;13479;49.044;8.716;2022-08-02T09:36:43;99378.69;;;50.55;13.13
25610;BME280;13479;49.044;8.716;2022-08-02T09:39:11;99381.09;;;50.56;12.85
25610;BME280;13479;49.044;8.716;2022-08-02T09:41:39;99381.81;;;50.38;12.62
25610;BME280;13479;49.044;8.716;2022-08-02T09:44:11;99384.16;;;50.29;12.57
25610;BME280;13479;49.044;8.716;2022-08-02T09:46:40;99385.81;;;50.37;12.93
25610;BME280;13479;49.044;8.716;2022-08-02T09:49:12;99373.34;;;50.38;12.61
25610;BME280;13479;49.044;8.716;2022-08-02T09:51:47;99379.97;;;50.08;12.89
25610;BME280;13479;49.044;8.716;2022-08-02T09:54:39;99371.19;;;49.69;13.02
25610;BME280;13479;49.044;8.716;2022-08-02T09:57:04;99366.09;;;49.82;12.72
25610;BME280;13479;49.044;8.716;2022-08-02T09:59:30;99358.88;;;49.88;12.96
25610;BME280;13479;49.044;8.716;2022-08-02T10:01:57;99354.16;;;49.16;12.97
25610;BME280;13479;49.044;8.716;2022-08-02T10:04:24;99351.94;;;48.65;13.96
25610;BME280;13479;49.044;8.716;2022-08-02T10:06:51;99355.78;;;47.72;14.23
25610;BME280;13479;49.044;8.716;2022-08-02T10:09:18;99339.22;;;45.94;15.43
25610;BME280;13479;49.044;8.716;2022-08-02T10:11:44;99330.31;;;44.18;16.93
25610;BME280;13479;49.044;8.716;2022-08-02T10:14:10;99317.44;;;42.54;18.61
25610;BME280;13479;49.044;8.716;2022-08-02T10:16:42;99306.75;;;41.01;20.09
25610;BME280;13479;49.044;8.716;2022-08-02T10:19:08;99307.84;;;40.21;20.73
25610;BME280;13479;49.044;8.716;2022-08-02T10:21:45;99291.88;;;39.86;20.78
25610;BME280;13479;49.044;8.716;2022-08-02T10:24:14;99281.28;;;40.06;21.09
25610;BME280;13479;49.044;8.716;2022-08-02T10:26:43;99277.44;;;41.21;19.92
25610;BME280;13479;49.044;8.716;2022-08-02T10:29:10;99279.94;;;42.21;18.86
25610;BME280;13479;49.044;8.716;2022-08-02T10:32:03;99282.78;;;43.10;17.44
25610;BME280;13479;49.044;8.716;2022-08-02T10:34:39;99296.94;;;43.38;17.60
25610;BME280;13479;49.044;8.716;2022-08-02T10:37:08;99292.72;;;42.43;18.32
25610;BME280;13479;49.044;8.716;2022-08-02T10:39:39;99283.41;;;42.39;18.71
25610;BME280;13479;49.044;8.716;2022-08-02T10:42:05;99277.22;;;42.76;18.11
25610;BME280;13479;49.044;8.716;2022-08-02T10:44:32;99274.22;;;42.81;18.12
25610;BME280;13479;49.044;8.716;2022-08-02T10:52:18;99286.19;;;43.74;17.40
25610;BME280;13479;49.044;8.716;2022-08-02T10:54:56;99285.94;;;43.66;17.44
25610;BME280;13479;49.044;8.716;2022-08-02T10:57:27;99279.34;;;44.37;17.14
25610;BME280;13479;49.044;8.716;2022-08-02T11:00:10;99281.63;;;44.60;16.31
25610;BME280;13479;49.044;8.716;2022-08-02T11:02:44;99274.25;;;44.67;16.61
25610;BME280;13479;49.044;8.716;2022-08-02T11:05:15;99280.78;;;44.31;16.97
25610;BME280;13479;49.044;8.716;2022-08-02T11:07:43;99285.94;;;43.91;17.34
25610;BME280;13479;49.044;8.716;2022-08-02T11:13:20;99265.63;;;43.32;18.11
25610;BME280;13479;49.044;8.716;2022-08-02T11:16:03;99246.81;;;42.74;18.44
25610;BME280;13479;49.044;8.716;2022-08-02T11:21:24;99236.72;;;40.64;20.11
25610;BME280;13479;49.044;8.716;2022-08-02T11:23:51;99229.97;;;39.54;20.76
25610;BME280;13479;49.044;8.716;2022-08-02T11:28:54;99221.94;;;37.79;22.10
25610;BME280;13479;49.044;8.716;2022-08-02T11:31:20;99218.66;;;37.35;23.25
25610;BME280;13479;49.044;8.716;2022-08-02T11:33:48;99214.09;;;36.98;24.37
25610;BME280;13479;49.044;8.716;2022-08-02T11:36:14;99200.50;;;36.49;23.69
25610;BME280;13479;49.044;8.716;2022-08-02T11:38:40;99202.13;;;36.12;24.35
25610;BME280;13479;49.044;8.716;2022-08-02T11:41:05;99191.59;;;35.95;24.44
25610;BME280;13479;49.044;8.716;2022-08-02T11:43:31;99195.09;;;35.57;25.19
25610;BME280;13479;49.044;8.716;2022-08-02T11:45:57;99192.28;;;35.08;25.27
25610;BME280;13479;49.044;8.716;2022-08-02T11:51:09;99184.78;;;34.50;25.90
25610;BME280;13479;49.044;8.716;2022-08-02T11:56:08;99183.94;;;33.44;26.62
25610;BME280;13479;49.044;8.716;2022-08-02T11:58:33;99199.91;;;33.32;27.35
25610;BME280;13479;49.044;8.716;2022-08-02T12:00:58;99179.56;;;33.17;27.21
25610;BME280;13479;49.044;8.716;2022-08-02T12:03:23;99173.84;;;32.88;27.58
25610;BME280;13479;49.044;8.716;2022-08-02T12:05:49;99169.16;;;32.52;27.60
25610;BME280;13479;49.044;8.716;2022-08-02T12:08:14;99165.84;;;32.40;27.75
25610;BME280;13479;49.044;8.716;2022-08-02T12:10:50;99167.53;;;32.46;27.45
25610;BME280;13479;49.044;8.716;2022-08-02T12:13:15;99156.53;;;32.41;27.89
25610;BME280;13479;49.044;8.716;2022-08-02T12:15:43;99161.22;;;32.40;27.80
25610;BME280;13479;49.044;8.716;2022-08-02T12:18:11;99154.88;;;32.40;27.22
25610;BME280;13479;49.044;8.716;2022-08-02T12:20:56;99157.00;;;32.07;27.79
25610;BME280;13479;49.044;8.716;2022-08-02T12:23:21;99152.03;;;31.88;28.50
25610;BME280;13479;49.044;8.716;2022-08-02T12:26:04;99161.28;;;31.71;30.12
25610;BME280;13479;49.044;8.716;2022-08-02T12:28:35;99155.81;;;31.71;30.21
25610;BME280;13479;49.044;8.716;2022-08-02T12:31:04;99151.91;;;31.62;29.96
25610;BME280;13479;49.044;8.716;2022-08-02T12:33:52;99157.91;;;31.59;30.53
25610;BME280;13479;49.044;8.716;2022-08-02T12:36:22;99153.53;;;31.53;29.99
25610;BME280;13479;49.044;8.716;2022-08-02T12:38:52;99145.03;;;31.65;31.11
25610;BME280;13479;49.044;8.716;2022-08-02T12:41:17;99156.91;;;31.70;31.13
25610;BME280;13479;49.044;8.716;2022-08-02T12:43:43;99156.41;;;31.79;31.82
25610;BME280;13479;49.044;8.716;2022-08-02T12:46:15;99147.09;;;31.95;31.13
25610;BME280;13479;49.044;8.716;2022-08-02T12:48:41;99143.81;;;32.03;29.56
25610;BME280;13479;49.044;8.716;2022-08-02T12:51:30;99138.88;;;32.06;29.92
25610;BME280;13479;49.044;8.716;2022-08-02T12:54:11;99144.13;;;32.17;28.92
25610;BME280;13479;49.044;8.716;2022-08-02T12:56:38;99141.97;;;32.25;29.13
25610;BME280;13479;49.044;8.716;2022-08-02T12:59:04;99139.47;;;32.23;30.37
25610;BME280;13479;49.044;8.716;2022-08-02T13:01:29;99136.16;;;32.21;30.07
25610;BME280;13479;49.044;8.716;2022-08-02T13:03:55;99142.19;;;32.18;28.72
25610;BME280;13479;49.044;8.716;2022-08-02T13:06:21;99129.88;;;32.36;30.14
25610;BME280;13479;49.044;8.716;2022-08-02T13:08:47;99136.75;;;32.44;29.15
25610;BME280;13479;49.044;8.716;2022-08-02T13:11:13;99135.09;;;32.69;28.99
25610;BME280;13479;49.044;8.716;2022-08-02T13:13:39;99140.03;;;32.77;28.86
25610;BME280;13479;49.044;8.716;2022-08-02T13:16:04;99144.41;;;32.93;27.26
25610;BME280;13479;49.044;8.716;2022-08-02T13:18:30;99144.41;;;32.99;27.50
25610;BME280;13479;49.044;8.716;2022-08-02T13:20:55;99142.78;;;33.03;28.68
25610;BME280;13479;49.044;8.716;2022-08-02T13:23:20;99137.53;;;33.06;28.65
25610;BME280;13479;49.044;8.716;2022-08-02T13:25:46;99139.72;;;32.99;28.56
25610;BME280;13479;49.044;8.716;2022-08-02T13:28:11;99138.91;;;32.93;28.05
25610;BME280;13479;49.044;8.716;2022-08-02T13:30:37;99137.28;;;32.92;28.83
25610;BME280;13479;49.044;8.716;2022-08-02T13:33:02;99139.22;;;32.92;26.95
25610;BME280;13479;49.044;8.716;2022-08-02T13:35:28;99136.75;;;32.90;26.36
25610;BME280;13479;49.044;8.716;2022-08-02T13:37:53;99139.47;;;33.01;28.10
25610;BME280;13479;49.044;8.716;2022-08-02T13:40:19;99136.16;;;32.99;26.43
25610;BME280;13479;49.044;8.716;2022-08-02T13:42:44;99137.81;;;33.00;27.95
25610;BME280;13479;49.044;8.716;2022-08-02T13:45:11;99142.50;;;32.94;25.88
25610;BME280;13479;49.044;8.716;2022-08-02T13:47:41;99127.34;;;33.12;25.35
25610;BME280;13479;49.044;8.716;2022-08-02T13:50:06;99137.28;;;32.98;25.75
25610;BME280;13479;49.044;8.716;2022-08-02T13:52:32;99134.00;;;32.90;26.12
25610;BME280;13479;49.044;8.716;2022-08-02T13:54:57;99133.44;;;32.83;26.28
25610;BME280;13479;49.044;8.716;2022-08-02T13:57:22;99130.44;;;32.79;27.43
25610;BME280;13479;49.044;8.716;2022-08-02T13:59:48;99123.00;;;32.70;25.66
25610;BME280;13479;49.044;8.716;2022-08-02T14:02:13;99120.28;;;32.44;25.92
25610;BME280;13479;49.044;8.716;2022-08-02T14:04:38;99125.72;;;32.18;26.43
25610;BME280;13479;49.044;8.716;2022-08-02T14:07:04;99120.72;;;31.94;26.48
25610;BME280;13479;49.044;8.716;2022-08-02T14:09:29;99109.13;;;31.66;27.16
25610;BME280;13479;49.044;8.716;2022-08-02T14:11:57;99101.47;;;31.68;28.06
25610;BME280;13479;49.044;8.716;2022-08-02T14:14:23;99093.78;;;31.70;28.52
25610;BME280;13479;49.044;8.716;2022-08-02T14:16:49;99074.91;;;31.84;27.59
25610;BME280;13479;49.044;8.716;2022-08-02T14:19:14;99071.34;;;31.89;27.71
25610;BME280;13479;49.044;8.716;2022-08-02T14:21:39;99078.47;;;31.90;28.53
25610;BME280;13479;49.044;8.716;2022-08-02T14:24:04;99076.84;;;31.99;28.42
25610;BME280;13479;49.044;8.716;2022-08-02T14:26:30;99071.31;;;31.94;28.06
25610;BME280;13479;49.044;8.716;2022-08-02T14:28:55;99070.78;;;31.87;28.08
25610;BME280;13479;49.044;8.716;2022-08-02T14:31:20;99076.25;;;31.87;28.80
25610;BME280;13479;49.044;8.716;2022-08-02T14:33:46;99077.06;;;31.77;28.99
25610;BME280;13479;49.044;8.716;2022-08-02T14:36:11;99069.66;;;31.72;28.94
25610;BME280;13479;49.044;8.716;2022-08-02T14:38:36;99080.03;;;31.65;29.31
25610;BME280;13479;49.044;8.716;2022-08-02T14:41:02;99071.56;;;31.72;28.85
25610;BME280;13479;49.044;8.716;2022-08-02T14:43:27;99066.91;;;31.78;29.29
25610;BME280;13479;49.044;8.716;2022-08-02T14:46:11;99072.94;;;31.75;29.45
25610;BME280;13479;49.044;8.716;2022-08-02T14:48:36;99074.91;;;31.84;29.66
25610;BME280;13479;49.044;8.716;2022-08-02T14:51:02;99076.56;;;31.96;29.45
25610;BME280;13479;49.044;8.716;2022-08-02T14:53:27;99074.06;;;32.04;28.27
25610;BME280;13479;49.044;8.716;2022-08-02T14:55:52;99064.75;;;32.00;28.30
25610;BME280;13479;49.044;8.716;2022-08-02T14:58:17;99067.50;;;32.11;29.12
25610;BME280;13479;49.044;8.716;2022-08-02T15:00:43;99068.59;;;32.20;27.79
25610;BME280;13479;49.044;8.716;2022-08-02T15:03:09;99077.94;;;32.19;28.75
25610;BME280;13479;49.044;8.716;2022-08-02T15:05:35;99073.84;;;32.27;27.70
25610;BME280;13479;49.044;8.716;2022-08-02T15:08:00;99073.03;;;32.31;28.17
25610;BME280;13479;49.044;8.716;2022-08-02T15:10:25;99079.06;;;32.33;27.51
25610;BME280;13479;49.044;8.716;2022-08-02T15:12:50;99074.66;;;32.27;27.68
25610;BME280;13479;49.044;8.716;2022-08-02T15:15:16;99073.03;;;32.31;27.79
25610;BME280;13479;49.044;8.716;2022-08-02T15:17:41;99077.41;;;32.27;28.17
25610;BME280;13479;49.044;8.716;2022-08-02T15:20:07;99069.16;;;32.27;28.02
25610;BME280;13479;49.044;8.716;2022-08-02T15:22:32;99069.75;;;32.24;28.20
25610;BME280;13479;49.044;8.716;2022-08-02T15:24:58;99068.34;;;32.27;27.42
25610;BME280;13479;49.044;8.716;2022-08-02T15:27:23;99064.78;;;32.26;27.39
25610;BME280;13479;49.044;8.716;2022-08-02T15:29:49;99064.75;;;32.21;28.15
25610;BME280;13479;49.044;8.716;2022-08-02T15:32:15;99073.00;;;32.11;27.59
25610;BME280;13479;49.044;8.716;2022-08-02T15:34:42;99065.59;;;32.16;27.27
25610;BME280;13479;49.044;8.716;2022-08-02T15:37:08;99066.13;;;32.13;27.38
25610;BME280;13479;49.044;8.716;2022-08-02T15:39:33;99071.88;;;32.17;26.79
25610;BME280;13479;49.044;8.716;2022-08-02T15:41:58;99071.63;;;32.13;27.46
25610;BME280;13479;49.044;8.716;2022-08-02T15:44:24;99073.56;;;32.13;27.72
25610;BME280;13479;49.044;8.716;2022-08-02T15:46:49;99064.19;;;32.19;27.85
25610;BME280;13479;49.044;8.716;2022-08-02T15:49:15;99059.00;;;32.17;27.81
25610;BME280;13479;49.044;8.716;2022-08-02T15:51:41;99059.81;;;32.08;28.29
25610;BME280;13479;49.044;8.716;2022-08-02T15:54:06;99046.91;;;32.08;28.21
25610;BME280;13479;49.044;8.716;2022-08-02T15:56:31;99044.97;;;32.03;28.39
25610;BME280;13479;49.044;8.716;2022-08-02T15:58:56;99041.94;;;32.00;28.54
25610;BME280;13479;49.044;8.716;2022-08-02T16:01:22;99046.91;;;32.03;28.12
25610;BME280;13479;49.044;8.716;2022-08-02T16:03:47;99048.00;;;31.97;27.81
25610;BME280;13479;49.044;8.716;2022-08-02T16:06:12;99056.50;;;31.90;27.76
25610;BME280;13479;49.044;8.716;2022-08-02T16:08:39;99054.31;;;31.97;28.39
25610;BME280;13479;49.044;8.716;2022-08-02T16:11:04;99042.53;;;31.97;29.05
25610;BME280;13479;49.044;8.716;2022-08-02T16:13:30;99040.56;;;31.92;28.88
25610;BME280;13479;49.044;8.716;2022-08-02T16:16:13;99045.50;;;31.85;28.68
25610;BME280;13479;49.044;8.716;2022-08-02T16:18:39;99032.34;;;31.87;29.14
25610;BME280;13479;49.044;8.716;2022-08-02T16:21:04;99041.69;;;31.86;28.45
25610;BME280;13479;49.044;8.716;2022-08-02T16:23:29;99045.50;;;31.85;27.55
25610;BME280;13479;49.044;8.716;2022-08-02T16:25:55;99041.38;;;31.77;28.87
25610;BME280;13479;49.044;8.716;2022-08-02T16:28:20;99034.00;;;31.78;28.39
25610;BME280;13479;49.044;8.716;2022-08-02T16:30:45;99037.81;;;31.82;28.64
25610;BME280;13479;49.044;8.716;2022-08-02T16:33:11;99034.81;;;31.78;28.25
25610;BME280;13479;49.044;8.716;2022-08-02T16:35:36;99044.41;;;31.81;27.71
25610;BME280;13479;49.044;8.716;2022-08-02T16:38:02;99047.44;;;31.84;27.31
25610;BME280;13479;49.044;8.716;2022-08-02T16:40:27;99049.09;;;31.91;27.46
25610;BME280;13479;49.044;8.716;2022-08-02T16:42:52;99052.13;;;31.99;27.25
25610;BME280;13479;49.044;8.716;2022-08-02T16:45:19;99057.88;;;32.03;27.24
25610;BME280;13479;49.044;8.716;2022-08-02T16:47:44;99050.75;;;32.02;28.22
25610;BME280;13479;49.044;8.716;2022-08-02T16:50:10;99051.03;;;31.90;27.29
25610;BME280;13479;49.044;8.716;2022-08-02T16:52:35;99055.41;;;31.96;27.24
25610;BME280;13479;49.044;8.716;2022-08-02T16:55:00;99054.03;;;31.83;28.64
25610;BME280;13479;49.044;8.716;2022-08-02T16:57:25;99037.84;;;31.77;28.13
25610;BME280;13479;49.044;8.716;2022-08-02T16:59:51;99028.75;;;31.76;27.82
25610;BME280;13479;49.044;8.716;2022-08-02T17:02:16;99024.66;;;31.68;28.85
25610;BME280;13479;49.044;8.716;2022-08-02T17:04:43;99024.03;;;31.51;28.56
25610;BME280;13479;49.044;8.716;2022-08-02T17:07:08;99018.78;;;31.39;28.87
25610;BME280;13479;49.044;8.716;2022-08-02T17:09:33;99024.00;;;31.35;29.46
25610;BME280;13479;49.044;8.716;2022-08-02T17:11:59;99017.38;;;31.26;29.39
25610;BME280;13479;49.044;8.716;2022-08-02T17:14:24;99013.44;;;31.06;29.45
25610;BME280;13479;49.044;8.716;2022-08-02T17:16:49;99021.09;;;31.04;29.81
25610;BME280;13479;49.044;8.716;2022-08-02T17:19:15;99015.63;;;30.99;30.38
25610;BME280;13479;49.044;8.716;2022-08-02T17:21:40;99013.31;;;30.80;30.75
25610;BME280;13479;49.044;8.716;2022-08-02T17:24:05;99019.31;;;30.72;31.00
25610;BME280;13479;49.044;8.716;2022-08-02T17:26:30;99008.28;;;30.57;31.08
25610;BME280;13479;49.044;8.716;2022-08-02T17:28:56;99014.28;;;30.54;31.25
25610;BME280;13479;49.044;8.716;2022-08-02T17:31:21;99010.38;;;30.49;31.09
25610;BME280;13479;49.044;8.716;2022-08-02T17:33:46;99014.19;;;30.43;31.63
25610;BME280;13479;49.044;8.716;2022-08-02T17:36:12;99009.19;;;30.35;31.70
25610;BME280;13479;49.044;8.716;2022-08-02T17:38:37;99008.59;;;30.28;31.91
25610;BME280;13479;49.044;8.716;2022-08-02T17:41:03;99001.41;;;30.16;31.78
25610;BME280;13479;49.044;8.716;2022-08-02T17:43:28;99006.34;;;30.19;31.31
25610;BME280;13479;49.044;8.716;2022-08-02T17:45:53;99005.28;;;30.20;31.88